sensor_id;sensor_type;location;lat;lon;timestamp;temperature;humidity
76996;DHT22;65929;49.062;10.338;2023-08-06T00:00:52;12.40;94.60
76996;DHT22;65929;49.062;10.338;2023-08-06T00:01:53;12.40;94.70
76996;DHT22;65929;49.062;10.338;2023-08-06T00:02:54;12.40;94.70
76996;DHT22;65929;49.062;10.338;2023-08-06T00:03:55;12.40;94.70
76996;DHT22;65929;49.062;10.338;2023-08-06T00:04:56;12.30;94.70
76996;DHT22;65929;49.062;10.338;2023-08-06T00:05:57;12.30;94.80
76996;DHT22;65929;49.062;10.338;2023-08-06T00:06:59;12.30;94.90
76996;DHT22;65929;49.062;10.338;2023-08-06T00:08:00;12.30;95.00
76996;DHT22;65929;49.062;10.338;2023-08-06T00:09:01;12.30;95.00
76996;DHT22;65929;49.062;10.338;2023-08-06T00:10:03;12.30;95.00
76996;DHT22;65929;49.062;10.338;2023-08-06T00:11:04;12.30;95.10
76996;DHT22;65929;49.062;10.338;2023-08-06T00:12:05;12.30;95.10
76996;DHT22;65929;49.062;10.338;2023-08-06T00:13:06;12.30;95.10
76996;DHT22;65929;49.062;10.338;2023-08-06T00:14:07;12.30;95.20
76996;DHT22;65929;49.062;10.338;2023-08-06T00:15:09;12.30;95.20
76996;DHT22;65929;49.062;10.338;2023-08-06T00:16:10;12.30;95.30
76996;DHT22;65929;49.062;10.338;2023-08-06T00:17:12;12.30;95.30
76996;DHT22;65929;49.062;10.338;2023-08-06T00:18:13;12.30;95.30
76996;DHT22;65929;49.062;10.338;2023-08-06T00:19:14;12.30;95.40
76996;DHT22;65929;49.062;10.338;2023-08-06T00:20:15;12.30;95.40
76996;DHT22;65929;49.062;10.338;2023-08-06T00:21:15;12.20;95.50
76996;DHT22;65929;49.062;10.338;2023-08-06T00:22:18;12.20;95.50
76996;DHT22;65929;49.062;10.338;2023-08-06T00:23:19;12.30;95.60
76996;DHT22;65929;49.062;10.338;2023-08-06T00:24:22;12.20;95.60
76996;DHT22;65929;49.062;10.338;2023-08-06T00:25:23;12.30;95.60
76996;DHT22;65929;49.062;10.338;2023-08-06T00:26:24;12.30;95.60
76996;DHT22;65929;49.062;10.338;2023-08-06T00:27:25;12.20;95.50
76996;DHT22;65929;49.062;10.338;2023-08-06T00:28:26;12.20;95.50
76996;DHT22;65929;49.062;10.338;2023-08-06T00:29:27;12.20;95.60
76996;DHT22;65929;49.062;10.338;2023-08-06T00:30:28;12.30;95.70
76996;DHT22;65929;49.062;10.338;2023-08-06T00:31:29;12.20;95.70
76996;DHT22;65929;49.062;10.338;2023-08-06T00:32:30;12.20;95.70
76996;DHT22;65929;49.062;10.338;2023-08-06T00:33:31;12.30;95.70
76996;DHT22;65929;49.062;10.338;2023-08-06T00:34:32;12.30;95.70
76996;DHT22;65929;49.062;10.338;2023-08-06T00:35:33;12.30;95.70
76996;DHT22;65929;49.062;10.338;2023-08-06T00:36:33;12.30;95.70
76996;DHT22;65929;49.062;10.338;2023-08-06T00:37:36;12.20;95.70
76996;DHT22;65929;49.062;10.338;2023-08-06T00:38:37;12.30;95.70
76996;DHT22;65929;49.062;10.338;2023-08-06T00:39:38;12.30;95.80
76996;DHT22;65929;49.062;10.338;2023-08-06T00:40:38;12.30;95.80
76996;DHT22;65929;49.062;10.338;2023-08-06T00:41:39;12.30;95.90
76996;DHT22;65929;49.062;10.338;2023-08-06T00:42:40;12.30;95.90
76996;DHT22;65929;49.062;10.338;2023-08-06T00:43:41;12.30;95.90
76996;DHT22;65929;49.062;10.338;2023-08-06T00:44:42;12.30;95.90
76996;DHT22;65929;49.062;10.338;2023-08-06T00:45:43;12.30;96.00
76996;DHT22;65929;49.062;10.338;2023-08-06T00:46:44;12.30;95.90
76996;DHT22;65929;49.062;10.338;2023-08-06T00:47:46;12.30;95.90
76996;DHT22;65929;49.062;10.338;2023-08-06T00:48:47;12.30;95.90
76996;DHT22;65929;49.062;10.338;2023-08-06T00:49:48;12.30;95.90
76996;DHT22;65929;49.062;10.338;2023-08-06T00:50:49;12.30;95.90
76996;DHT22;65929;49.062;10.338;2023-08-06T00:51:50;12.30;96.00
76996;DHT22;65929;49.062;10.338;2023-08-06T00:52:53;12.30;96.00
76996;DHT22;65929;49.062;10.338;2023-08-06T00:53:55;12.30;96.00
76996;DHT22;65929;49.062;10.338;2023-08-06T00:54:56;12.30;96.10
76996;DHT22;65929;49.062;10.338;2023-08-06T00:55:58;12.30;96.10
76996;DHT22;65929;49.062;10.338;2023-08-06T00:56:59;12.30;96.10
76996;DHT22;65929;49.062;10.338;2023-08-06T00:58:01;12.30;96.20
76996;DHT22;65929;49.062;10.338;2023-08-06T00:59:03;12.30;96.20
76996;DHT22;65929;49.062;10.338;2023-08-06T01:00:06;12.30;96.20
76996;DHT22;65929;49.062;10.338;2023-08-06T01:01:07;12.20;96.20
76996;DHT22;65929;49.062;10.338;2023-08-06T01:02:08;12.20;96.30
76996;DHT22;65929;49.062;10.338;2023-08-06T01:03:09;12.20;96.30
76996;DHT22;65929;49.062;10.338;2023-08-06T01:04:10;12.30;96.40
76996;DHT22;65929;49.062;10.338;2023-08-06T01:05:12;12.30;96.30
76996;DHT22;65929;49.062;10.338;2023-08-06T01:06:15;12.20;96.30
76996;DHT22;65929;49.062;10.338;2023-08-06T01:07:25;12.20;96.40
76996;DHT22;65929;49.062;10.338;2023-08-06T01:08:39;12.20;96.30
76996;DHT22;65929;49.062;10.338;2023-08-06T01:09:48;12.20;96.40
76996;DHT22;65929;49.062;10.338;2023-08-06T01:10:59;12.20;96.40
76996;DHT22;65929;49.062;10.338;2023-08-06T01:12:09;12.20;96.50
76996;DHT22;65929;49.062;10.338;2023-08-06T01:13:18;12.20;96.50
76996;DHT22;65929;49.062;10.338;2023-08-06T01:14:30;12.10;96.50
76996;DHT22;65929;49.062;10.338;2023-08-06T01:15:35;12.10;96.50
76996;DHT22;65929;49.062;10.338;2023-08-06T01:16:39;12.10;96.50
76996;DHT22;65929;49.062;10.338;2023-08-06T01:17:41;12.10;96.60
76996;DHT22;65929;49.062;10.338;2023-08-06T01:18:42;12.10;96.60
76996;DHT22;65929;49.062;10.338;2023-08-06T01:19:46;12.10;96.70
76996;DHT22;65929;49.062;10.338;2023-08-06T01:20:49;12.10;96.70
76996;DHT22;65929;49.062;10.338;2023-08-06T01:21:50;12.10;96.70
76996;DHT22;65929;49.062;10.338;2023-08-06T01:22:51;12.10;96.80
76996;DHT22;65929;49.062;10.338;2023-08-06T01:23:52;12.10;96.80
76996;DHT22;65929;49.062;10.338;2023-08-06T01:24:53;12.10;96.80
76996;DHT22;65929;49.062;10.338;2023-08-06T01:26:04;12.10;96.90
76996;DHT22;65929;49.062;10.338;2023-08-06T01:27:14;12.10;96.90
76996;DHT22;65929;49.062;10.338;2023-08-06T01:28:21;12.10;97.00
76996;DHT22;65929;49.062;10.338;2023-08-06T01:29:28;12.10;97.00
76996;DHT22;65929;49.062;10.338;2023-08-06T01:30:32;12.10;97.00
76996;DHT22;65929;49.062;10.338;2023-08-06T01:31:42;12.10;97.10
76996;DHT22;65929;49.062;10.338;2023-08-06T01:32:46;12.10;97.10
76996;DHT22;65929;49.062;10.338;2023-08-06T01:33:49;12.10;97.20
76996;DHT22;65929;49.062;10.338;2023-08-06T01:34:51;12.10;97.20
76996;DHT22;65929;49.062;10.338;2023-08-06T01:35:55;12.10;97.20
76996;DHT22;65929;49.062;10.338;2023-08-06T01:36:58;12.10;97.30
76996;DHT22;65929;49.062;10.338;2023-08-06T01:38:01;12.20;97.30
76996;DHT22;65929;49.062;10.338;2023-08-06T01:39:02;12.20;97.30
76996;DHT22;65929;49.062;10.338;2023-08-06T01:40:06;12.20;97.30
76996;DHT22;65929;49.062;10.338;2023-08-06T01:41:07;12.20;97.40
76996;DHT22;65929;49.062;10.338;2023-08-06T01:42:08;12.20;97.40
76996;DHT22;65929;49.062;10.338;2023-08-06T01:43:09;12.20;97.50
76996;DHT22;65929;49.062;10.338;2023-08-06T01:44:11;12.20;97.50
76996;DHT22;65929;49.062;10.338;2023-08-06T01:45:12;12.20;97.50
76996;DHT22;65929;49.062;10.338;2023-08-06T01:46:13;12.20;97.60
76996;DHT22;65929;49.062;10.338;2023-08-06T01:47:13;12.20;97.60
76996;DHT22;65929;49.062;10.338;2023-08-06T01:48:14;12.20;97.60
76996;DHT22;65929;49.062;10.338;2023-08-06T01:49:15;12.20;97.60
76996;DHT22;65929;49.062;10.338;2023-08-06T01:50:16;12.20;97.60
76996;DHT22;65929;49.062;10.338;2023-08-06T01:51:18;12.20;97.60
76996;DHT22;65929;49.062;10.338;2023-08-06T01:52:19;12.20;97.70
76996;DHT22;65929;49.062;10.338;2023-08-06T01:53:20;12.20;97.70
76996;DHT22;65929;49.062;10.338;2023-08-06T01:54:21;12.20;97.70
76996;DHT22;65929;49.062;10.338;2023-08-06T01:55:23;12.20;97.70
76996;DHT22;65929;49.062;10.338;2023-08-06T01:56:24;12.20;97.80
76996;DHT22;65929;49.062;10.338;2023-08-06T01:57:25;12.20;97.70
76996;DHT22;65929;49.062;10.338;2023-08-06T01:58:26;12.20;97.80
76996;DHT22;65929;49.062;10.338;2023-08-06T01:59:27;12.20;97.80
76996;DHT22;65929;49.062;10.338;2023-08-06T02:00:28;12.20;97.80
76996;DHT22;65929;49.062;10.338;2023-08-06T02:01:29;12.20;97.80
76996;DHT22;65929;49.062;10.338;2023-08-06T02:02:30;12.30;97.90
76996;DHT22;65929;49.062;10.338;2023-08-06T02:03:31;12.30;97.90
76996;DHT22;65929;49.062;10.338;2023-08-06T02:04:32;12.30;97.90
76996;DHT22;65929;49.062;10.338;2023-08-06T02:05:33;12.40;98.00
76996;DHT22;65929;49.062;10.338;2023-08-06T02:06:35;12.30;98.00
76996;DHT22;65929;49.062;10.338;2023-08-06T02:07:36;12.40;98.00
76996;DHT22;65929;49.062;10.338;2023-08-06T02:08:37;12.40;98.00
76996;DHT22;65929;49.062;10.338;2023-08-06T02:09:39;12.40;98.00
76996;DHT22;65929;49.062;10.338;2023-08-06T02:10:40;12.40;98.00
76996;DHT22;65929;49.062;10.338;2023-08-06T02:11:42;12.40;98.00
76996;DHT22;65929;49.062;10.338;2023-08-06T02:12:43;12.40;98.00
76996;DHT22;65929;49.062;10.338;2023-08-06T02:13:44;12.40;98.00
76996;DHT22;65929;49.062;10.338;2023-08-06T02:14:46;12.40;98.00
76996;DHT22;65929;49.062;10.338;2023-08-06T02:15:47;12.40;98.00
76996;DHT22;65929;49.062;10.338;2023-08-06T02:16:48;12.40;98.00
76996;DHT22;65929;49.062;10.338;2023-08-06T02:17:50;12.40;98.00
76996;DHT22;65929;49.062;10.338;2023-08-06T02:18:51;12.40;98.00
76996;DHT22;65929;49.062;10.338;2023-08-06T02:19:52;12.40;98.00
76996;DHT22;65929;49.062;10.338;2023-08-06T02:20:56;12.30;98.00
76996;DHT22;65929;49.062;10.338;2023-08-06T02:21:59;12.30;98.00
76996;DHT22;65929;49.062;10.338;2023-08-06T02:23:00;12.30;98.00
76996;DHT22;65929;49.062;10.338;2023-08-06T02:24:01;12.30;98.00
76996;DHT22;65929;49.062;10.338;2023-08-06T02:25:02;12.20;98.00
76996;DHT22;65929;49.062;10.338;2023-08-06T02:26:04;12.20;98.00
76996;DHT22;65929;49.062;10.338;2023-08-06T02:27:05;12.20;98.00
76996;DHT22;65929;49.062;10.338;2023-08-06T02:28:06;12.20;98.00
76996;DHT22;65929;49.062;10.338;2023-08-06T02:29:07;12.20;98.00
76996;DHT22;65929;49.062;10.338;2023-08-06T02:30:08;12.20;98.00
76996;DHT22;65929;49.062;10.338;2023-08-06T02:31:09;12.20;98.00
76996;DHT22;65929;49.062;10.338;2023-08-06T02:32:10;12.10;98.00
76996;DHT22;65929;49.062;10.338;2023-08-06T02:33:11;12.10;98.00
76996;DHT22;65929;49.062;10.338;2023-08-06T02:34:12;12.10;98.00
76996;DHT22;65929;49.062;10.338;2023-08-06T02:35:13;12.10;98.00
76996;DHT22;65929;49.062;10.338;2023-08-06T02:36:14;12.10;98.00
76996;DHT22;65929;49.062;10.338;2023-08-06T02:37:16;12.10;98.00
76996;DHT22;65929;49.062;10.338;2023-08-06T02:38:17;12.10;98.10
76996;DHT22;65929;49.062;10.338;2023-08-06T02:39:19;12.10;98.10
76996;DHT22;65929;49.062;10.338;2023-08-06T02:40:20;12.10;98.00
76996;DHT22;65929;49.062;10.338;2023-08-06T02:41:21;12.10;98.10
76996;DHT22;65929;49.062;10.338;2023-08-06T02:42:22;12.10;98.10
76996;DHT22;65929;49.062;10.338;2023-08-06T02:43:24;12.10;98.10
76996;DHT22;65929;49.062;10.338;2023-08-06T02:44:27;12.00;98.10
76996;DHT22;65929;49.062;10.338;2023-08-06T02:45:29;12.10;98.10
76996;DHT22;65929;49.062;10.338;2023-08-06T02:46:30;12.10;98.20
76996;DHT22;65929;49.062;10.338;2023-08-06T02:47:30;12.10;98.20
76996;DHT22;65929;49.062;10.338;2023-08-06T02:48:32;12.10;98.20
76996;DHT22;65929;49.062;10.338;2023-08-06T02:49:33;12.10;98.20
76996;DHT22;65929;49.062;10.338;2023-08-06T02:50:38;12.10;98.20
76996;DHT22;65929;49.062;10.338;2023-08-06T02:51:40;12.10;98.20
76996;DHT22;65929;49.062;10.338;2023-08-06T02:52:42;12.00;98.20
76996;DHT22;65929;49.062;10.338;2023-08-06T02:53:43;12.00;98.20
76996;DHT22;65929;49.062;10.338;2023-08-06T02:54:44;12.00;98.20
76996;DHT22;65929;49.062;10.338;2023-08-06T02:55:46;12.00;98.20
76996;DHT22;65929;49.062;10.338;2023-08-06T02:56:49;12.00;98.20
76996;DHT22;65929;49.062;10.338;2023-08-06T02:57:50;12.00;98.20
76996;DHT22;65929;49.062;10.338;2023-08-06T02:58:51;12.00;98.20
76996;DHT22;65929;49.062;10.338;2023-08-06T02:59:52;12.00;98.20
76996;DHT22;65929;49.062;10.338;2023-08-06T03:01:00;12.00;98.20
76996;DHT22;65929;49.062;10.338;2023-08-06T03:02:01;12.00;98.20
76996;DHT22;65929;49.062;10.338;2023-08-06T03:03:02;12.00;98.30
76996;DHT22;65929;49.062;10.338;2023-08-06T03:04:03;12.00;98.20
76996;DHT22;65929;49.062;10.338;2023-08-06T03:05:04;12.00;98.20
76996;DHT22;65929;49.062;10.338;2023-08-06T03:06:06;12.00;98.20
76996;DHT22;65929;49.062;10.338;2023-08-06T03:07:07;12.00;98.20
76996;DHT22;65929;49.062;10.338;2023-08-06T03:08:09;12.00;98.30
76996;DHT22;65929;49.062;10.338;2023-08-06T03:09:10;12.00;98.30
76996;DHT22;65929;49.062;10.338;2023-08-06T03:10:11;12.00;98.30
76996;DHT22;65929;49.062;10.338;2023-08-06T03:11:13;12.00;98.30
76996;DHT22;65929;49.062;10.338;2023-08-06T03:12:14;12.00;98.30
76996;DHT22;65929;49.062;10.338;2023-08-06T03:13:15;12.00;98.30
76996;DHT22;65929;49.062;10.338;2023-08-06T03:15:19;12.10;98.40
76996;DHT22;65929;49.062;10.338;2023-08-06T03:16:20;12.10;98.40
76996;DHT22;65929;49.062;10.338;2023-08-06T03:17:21;12.10;98.40
76996;DHT22;65929;49.062;10.338;2023-08-06T03:18:22;12.10;98.40
76996;DHT22;65929;49.062;10.338;2023-08-06T03:19:23;12.10;98.40
76996;DHT22;65929;49.062;10.338;2023-08-06T03:20:25;12.10;98.50
76996;DHT22;65929;49.062;10.338;2023-08-06T03:21:26;12.10;98.40
76996;DHT22;65929;49.062;10.338;2023-08-06T03:22:27;12.10;98.40
76996;DHT22;65929;49.062;10.338;2023-08-06T03:23:30;12.10;98.50
76996;DHT22;65929;49.062;10.338;2023-08-06T03:24:30;12.10;98.50
76996;DHT22;65929;49.062;10.338;2023-08-06T03:25:34;12.10;98.50
76996;DHT22;65929;49.062;10.338;2023-08-06T03:26:35;12.10;98.50
76996;DHT22;65929;49.062;10.338;2023-08-06T03:27:36;12.10;98.50
76996;DHT22;65929;49.062;10.338;2023-08-06T03:28:37;12.10;98.50
76996;DHT22;65929;49.062;10.338;2023-08-06T03:29:38;12.10;98.50
76996;DHT22;65929;49.062;10.338;2023-08-06T03:30:39;12.10;98.50
76996;DHT22;65929;49.062;10.338;2023-08-06T03:31:40;12.10;98.50
76996;DHT22;65929;49.062;10.338;2023-08-06T03:32:41;12.10;98.50
76996;DHT22;65929;49.062;10.338;2023-08-06T03:33:42;12.10;98.50
76996;DHT22;65929;49.062;10.338;2023-08-06T03:34:43;12.10;98.50
76996;DHT22;65929;49.062;10.338;2023-08-06T03:35:44;12.10;98.50
76996;DHT22;65929;49.062;10.338;2023-08-06T03:36:45;12.10;98.50
76996;DHT22;65929;49.062;10.338;2023-08-06T03:37:46;12.10;98.50
76996;DHT22;65929;49.062;10.338;2023-08-06T03:38:49;12.10;98.50
76996;DHT22;65929;49.062;10.338;2023-08-06T03:39:49;12.10;98.50
76996;DHT22;65929;49.062;10.338;2023-08-06T03:40:50;12.10;98.50
76996;DHT22;65929;49.062;10.338;2023-08-06T03:41:51;12.10;98.40
76996;DHT22;65929;49.062;10.338;2023-08-06T03:42:52;12.10;98.40
76996;DHT22;65929;49.062;10.338;2023-08-06T03:43:53;12.10;98.40
76996;DHT22;65929;49.062;10.338;2023-08-06T03:44:54;12.10;98.40
76996;DHT22;65929;49.062;10.338;2023-08-06T03:45:55;12.10;98.40
76996;DHT22;65929;49.062;10.338;2023-08-06T03:46:56;12.10;98.40
76996;DHT22;65929;49.062;10.338;2023-08-06T03:47:57;12.10;98.40
76996;DHT22;65929;49.062;10.338;2023-08-06T03:48:58;12.10;98.30
76996;DHT22;65929;49.062;10.338;2023-08-06T03:49:59;12.10;98.30
76996;DHT22;65929;49.062;10.338;2023-08-06T03:51:00;12.10;98.30
76996;DHT22;65929;49.062;10.338;2023-08-06T03:52:03;12.10;98.20
76996;DHT22;65929;49.062;10.338;2023-08-06T03:53:04;12.00;98.20
76996;DHT22;65929;49.062;10.338;2023-08-06T03:54:06;12.00;98.20
76996;DHT22;65929;49.062;10.338;2023-08-06T03:55:07;12.00;98.20
76996;DHT22;65929;49.062;10.338;2023-08-06T03:56:08;12.00;98.20
76996;DHT22;65929;49.062;10.338;2023-08-06T03:57:09;12.00;98.20
76996;DHT22;65929;49.062;10.338;2023-08-06T03:58:10;11.90;98.20
76996;DHT22;65929;49.062;10.338;2023-08-06T03:59:11;11.90;98.20
76996;DHT22;65929;49.062;10.338;2023-08-06T04:00:13;11.90;98.10
76996;DHT22;65929;49.062;10.338;2023-08-06T04:01:14;11.90;98.10
76996;DHT22;65929;49.062;10.338;2023-08-06T04:02:15;11.90;98.10
76996;DHT22;65929;49.062;10.338;2023-08-06T04:03:15;11.90;98.10
76996;DHT22;65929;49.062;10.338;2023-08-06T04:04:17;11.90;98.10
76996;DHT22;65929;49.062;10.338;2023-08-06T04:05:18;11.90;98.20
76996;DHT22;65929;49.062;10.338;2023-08-06T04:06:19;11.90;98.10
76996;DHT22;65929;49.062;10.338;2023-08-06T04:07:20;11.90;98.10
76996;DHT22;65929;49.062;10.338;2023-08-06T04:08:21;11.90;98.20
76996;DHT22;65929;49.062;10.338;2023-08-06T04:09:23;11.90;98.20
76996;DHT22;65929;49.062;10.338;2023-08-06T04:10:24;11.90;98.20
76996;DHT22;65929;49.062;10.338;2023-08-06T04:11:25;11.90;98.20
76996;DHT22;65929;49.062;10.338;2023-08-06T04:12:26;11.90;98.20
76996;DHT22;65929;49.062;10.338;2023-08-06T04:13:27;11.90;98.20
76996;DHT22;65929;49.062;10.338;2023-08-06T04:14:28;12.00;98.20
76996;DHT22;65929;49.062;10.338;2023-08-06T04:15:29;11.90;98.20
76996;DHT22;65929;49.062;10.338;2023-08-06T04:16:30;12.00;98.20
76996;DHT22;65929;49.062;10.338;2023-08-06T04:17:31;12.00;98.20
76996;DHT22;65929;49.062;10.338;2023-08-06T04:18:32;12.00;98.20
76996;DHT22;65929;49.062;10.338;2023-08-06T04:19:33;12.00;98.20
76996;DHT22;65929;49.062;10.338;2023-08-06T04:20:34;11.90;98.30
76996;DHT22;65929;49.062;10.338;2023-08-06T04:21:35;11.90;98.20
76996;DHT22;65929;49.062;10.338;2023-08-06T04:22:36;11.90;98.30
76996;DHT22;65929;49.062;10.338;2023-08-06T04:23:37;11.90;98.30
76996;DHT22;65929;49.062;10.338;2023-08-06T04:24:39;11.90;98.30
76996;DHT22;65929;49.062;10.338;2023-08-06T04:25:40;12.00;98.30
76996;DHT22;65929;49.062;10.338;2023-08-06T04:26:41;12.00;98.30
76996;DHT22;65929;49.062;10.338;2023-08-06T04:27:42;12.10;98.30
76996;DHT22;65929;49.062;10.338;2023-08-06T04:28:43;12.10;98.30
76996;DHT22;65929;49.062;10.338;2023-08-06T04:29:44;12.10;98.40
76996;DHT22;65929;49.062;10.338;2023-08-06T04:30:45;12.10;98.40
76996;DHT22;65929;49.062;10.338;2023-08-06T04:31:46;12.10;98.40
76996;DHT22;65929;49.062;10.338;2023-08-06T04:32:47;12.20;98.30
76996;DHT22;65929;49.062;10.338;2023-08-06T04:33:48;12.20;98.30
76996;DHT22;65929;49.062;10.338;2023-08-06T04:34:48;12.20;98.30
76996;DHT22;65929;49.062;10.338;2023-08-06T04:35:54;12.20;98.30
76996;DHT22;65929;49.062;10.338;2023-08-06T04:36:55;12.20;98.30
76996;DHT22;65929;49.062;10.338;2023-08-06T04:37:56;12.20;98.30
76996;DHT22;65929;49.062;10.338;2023-08-06T04:38:57;12.20;98.30
76996;DHT22;65929;49.062;10.338;2023-08-06T04:39:59;12.20;98.20
76996;DHT22;65929;49.062;10.338;2023-08-06T04:41:02;12.20;98.20
76996;DHT22;65929;49.062;10.338;2023-08-06T04:42:04;12.20;98.20
76996;DHT22;65929;49.062;10.338;2023-08-06T04:43:05;12.20;98.20
76996;DHT22;65929;49.062;10.338;2023-08-06T04:44:06;12.30;98.10
76996;DHT22;65929;49.062;10.338;2023-08-06T04:45:08;12.30;98.10
76996;DHT22;65929;49.062;10.338;2023-08-06T04:46:09;12.30;98.10
76996;DHT22;65929;49.062;10.338;2023-08-06T04:47:10;12.30;98.00
76996;DHT22;65929;49.062;10.338;2023-08-06T04:48:10;12.30;98.00
76996;DHT22;65929;49.062;10.338;2023-08-06T04:49:11;12.40;97.90
76996;DHT22;65929;49.062;10.338;2023-08-06T04:50:12;12.40;97.90
76996;DHT22;65929;49.062;10.338;2023-08-06T04:51:13;12.40;97.80
76996;DHT22;65929;49.062;10.338;2023-08-06T04:52:14;12.50;97.70
76996;DHT22;65929;49.062;10.338;2023-08-06T04:53:16;12.50;97.60
76996;DHT22;65929;49.062;10.338;2023-08-06T04:54:17;12.50;97.50
76996;DHT22;65929;49.062;10.338;2023-08-06T04:55:19;12.50;97.40
76996;DHT22;65929;49.062;10.338;2023-08-06T04:56:20;12.50;97.30
76996;DHT22;65929;49.062;10.338;2023-08-06T04:57:21;12.50;97.20
76996;DHT22;65929;49.062;10.338;2023-08-06T04:58:22;12.50;97.20
76996;DHT22;65929;49.062;10.338;2023-08-06T04:59:23;12.50;97.10
76996;DHT22;65929;49.062;10.338;2023-08-06T05:00:24;12.50;97.00
76996;DHT22;65929;49.062;10.338;2023-08-06T05:01:25;12.50;96.90
76996;DHT22;65929;49.062;10.338;2023-08-06T05:02:26;12.50;96.80
76996;DHT22;65929;49.062;10.338;2023-08-06T05:03:27;12.50;96.70
76996;DHT22;65929;49.062;10.338;2023-08-06T05:04:28;12.50;96.70
76996;DHT22;65929;49.062;10.338;2023-08-06T05:05:29;12.50;96.60
76996;DHT22;65929;49.062;10.338;2023-08-06T05:06:30;12.50;96.50
76996;DHT22;65929;49.062;10.338;2023-08-06T05:07:31;12.50;96.50
76996;DHT22;65929;49.062;10.338;2023-08-06T05:08:32;12.60;96.50
76996;DHT22;65929;49.062;10.338;2023-08-06T05:09:33;12.70;96.40
76996;DHT22;65929;49.062;10.338;2023-08-06T05:10:35;12.70;96.40
76996;DHT22;65929;49.062;10.338;2023-08-06T05:11:36;12.70;96.30
76996;DHT22;65929;49.062;10.338;2023-08-06T05:12:37;12.80;96.30
76996;DHT22;65929;49.062;10.338;2023-08-06T05:13:38;12.80;96.30
76996;DHT22;65929;49.062;10.338;2023-08-06T05:14:39;12.90;96.30
76996;DHT22;65929;49.062;10.338;2023-08-06T05:15:40;12.90;96.30
76996;DHT22;65929;49.062;10.338;2023-08-06T05:16:43;13.00;96.40
76996;DHT22;65929;49.062;10.338;2023-08-06T05:17:43;13.10;96.40
76996;DHT22;65929;49.062;10.338;2023-08-06T05:18:44;13.10;96.00
76996;DHT22;65929;49.062;10.338;2023-08-06T05:19:45;13.10;95.40
76996;DHT22;65929;49.062;10.338;2023-08-06T05:20:46;13.10;94.60
76996;DHT22;65929;49.062;10.338;2023-08-06T05:21:47;13.10;93.80
76996;DHT22;65929;49.062;10.338;2023-08-06T05:22:48;13.10;93.70
76996;DHT22;65929;49.062;10.338;2023-08-06T05:23:49;13.10;93.80
76996;DHT22;65929;49.062;10.338;2023-08-06T05:24:50;13.10;93.90
76996;DHT22;65929;49.062;10.338;2023-08-06T05:25:52;13.10;93.90
76996;DHT22;65929;49.062;10.338;2023-08-06T05:26:53;13.10;94.20
76996;DHT22;65929;49.062;10.338;2023-08-06T05:27:54;13.10;94.10
76996;DHT22;65929;49.062;10.338;2023-08-06T05:28:55;13.10;94.30
76996;DHT22;65929;49.062;10.338;2023-08-06T05:29:56;13.10;94.50
76996;DHT22;65929;49.062;10.338;2023-08-06T05:30:57;13.10;94.60
76996;DHT22;65929;49.062;10.338;2023-08-06T05:31:58;13.10;94.70
76996;DHT22;65929;49.062;10.338;2023-08-06T05:32:59;13.10;94.80
76996;DHT22;65929;49.062;10.338;2023-08-06T05:34:00;13.10;94.90
76996;DHT22;65929;49.062;10.338;2023-08-06T05:35:02;13.10;94.90
76996;DHT22;65929;49.062;10.338;2023-08-06T05:36:04;13.10;94.80
76996;DHT22;65929;49.062;10.338;2023-08-06T05:37:05;13.10;94.70
76996;DHT22;65929;49.062;10.338;2023-08-06T05:38:06;13.10;94.70
76996;DHT22;65929;49.062;10.338;2023-08-06T05:39:07;13.10;94.60
76996;DHT22;65929;49.062;10.338;2023-08-06T05:40:09;13.10;94.60
76996;DHT22;65929;49.062;10.338;2023-08-06T05:41:11;13.10;94.40
76996;DHT22;65929;49.062;10.338;2023-08-06T05:42:12;13.10;94.20
76996;DHT22;65929;49.062;10.338;2023-08-06T05:43:13;13.10;94.10
76996;DHT22;65929;49.062;10.338;2023-08-06T05:44:14;13.10;94.20
76996;DHT22;65929;49.062;10.338;2023-08-06T05:45:15;13.10;94.30
76996;DHT22;65929;49.062;10.338;2023-08-06T05:46:16;13.10;94.30
76996;DHT22;65929;49.062;10.338;2023-08-06T05:47:17;13.10;94.50
76996;DHT22;65929;49.062;10.338;2023-08-06T05:48:20;13.10;94.70
76996;DHT22;65929;49.062;10.338;2023-08-06T05:49:23;13.10;94.70
76996;DHT22;65929;49.062;10.338;2023-08-06T05:50:24;13.10;94.70
76996;DHT22;65929;49.062;10.338;2023-08-06T05:51:26;13.30;94.50
76996;DHT22;65929;49.062;10.338;2023-08-06T05:52:27;13.30;94.60
76996;DHT22;65929;49.062;10.338;2023-08-06T05:53:28;13.30;94.70
76996;DHT22;65929;49.062;10.338;2023-08-06T05:54:29;13.40;94.60
76996;DHT22;65929;49.062;10.338;2023-08-06T05:55:30;13.50;94.40
76996;DHT22;65929;49.062;10.338;2023-08-06T05:56:34;13.50;94.00
76996;DHT22;65929;49.062;10.338;2023-08-06T05:57:36;13.50;93.20
76996;DHT22;65929;49.062;10.338;2023-08-06T05:58:37;13.60;93.00
76996;DHT22;65929;49.062;10.338;2023-08-06T05:59:38;13.70;92.50
76996;DHT22;65929;49.062;10.338;2023-08-06T06:00:39;13.70;92.20
76996;DHT22;65929;49.062;10.338;2023-08-06T06:01:40;13.80;91.70
76996;DHT22;65929;49.062;10.338;2023-08-06T06:02:41;13.90;90.30
76996;DHT22;65929;49.062;10.338;2023-08-06T06:03:42;13.90;89.40
76996;DHT22;65929;49.062;10.338;2023-08-06T06:04:43;13.90;89.00
76996;DHT22;65929;49.062;10.338;2023-08-06T06:05:45;13.90;90.00
76996;DHT22;65929;49.062;10.338;2023-08-06T06:06:46;13.90;90.00
76996;DHT22;65929;49.062;10.338;2023-08-06T06:07:47;13.80;88.00
76996;DHT22;65929;49.062;10.338;2023-08-06T06:08:47;13.80;87.90
76996;DHT22;65929;49.062;10.338;2023-08-06T06:09:48;13.70;88.30
76996;DHT22;65929;49.062;10.338;2023-08-06T06:10:49;13.80;89.30
76996;DHT22;65929;49.062;10.338;2023-08-06T06:11:52;13.80;88.80
76996;DHT22;65929;49.062;10.338;2023-08-06T06:12:53;13.70;88.70
76996;DHT22;65929;49.062;10.338;2023-08-06T06:13:53;13.70;88.30
76996;DHT22;65929;49.062;10.338;2023-08-06T06:14:55;13.70;88.60
76996;DHT22;65929;49.062;10.338;2023-08-06T06:15:56;13.70;88.90
76996;DHT22;65929;49.062;10.338;2023-08-06T06:16:57;13.70;89.80
76996;DHT22;65929;49.062;10.338;2023-08-06T06:17:58;13.70;88.80
76996;DHT22;65929;49.062;10.338;2023-08-06T06:18:59;13.70;89.00
76996;DHT22;65929;49.062;10.338;2023-08-06T06:20:00;13.60;88.80
76996;DHT22;65929;49.062;10.338;2023-08-06T06:21:00;13.60;88.90
76996;DHT22;65929;49.062;10.338;2023-08-06T06:22:02;13.60;89.70
76996;DHT22;65929;49.062;10.338;2023-08-06T06:23:02;13.60;89.00
76996;DHT22;65929;49.062;10.338;2023-08-06T06:24:04;13.50;87.90